Time;durP1;ratioP1;P1;durP2;ratioP2;P2;SDS_P1;SDS_P2;PMS_P1;PMS_P2;Temp;Humidity;BMP_temperature;BMP_pressure;BME280_temperature;BME280_humidity;BME280_pressure;Samples;Min_cycle;Max_cycle;Signal;HPM_P1;HPM_P2
2022/06/26 00:00:19;;;;;;;14.40;5.60;;;;;;;19.92;62.29;100035.19;105889;1270;22546;-59
2022/06/26 00:03:07;;;;;;;17.60;5.70;;;;;;;19.87;62.36;100035.91;105700;1270;24763;-58
2022/06/26 00:05:39;;;;;;;18.50;6.10;;;;;;;19.86;62.24;100042.39;106116;1270;22824;-59
2022/06/26 00:08:12;;;;;;;16.40;7.30;;;;;;;19.84;62.29;100041.13;106021;1270;22555;-59
2022/06/26 00:10:45;;;;;;;13.90;6.80;;;;;;;19.82;62.71;100032.83;105799;1270;22640;-59
2022/06/26 00:13:17;;;;;;;14.10;6.80;;;;;;;19.78;62.87;100035.05;106040;1270;24246;-58
2022/06/26 00:15:48;;;;;;;16.00;7.10;;;;;;;19.74;62.86;100041.26;105958;1270;22525;-56
2022/06/26 00:18:20;;;;;;;16.70;7.20;;;;;;;19.67;63.20;100043.25;105872;1270;22587;-56
2022/06/26 00:20:52;;;;;;;15.80;7.40;;;;;;;19.60;63.51;100044.48;105981;1270;22534;-56
2022/06/26 00:23:24;;;;;;;15.90;7.10;;;;;;;19.52;63.67;100043.84;105868;1270;22528;-59
2022/06/26 00:25:55;;;;;;;14.40;6.90;;;;;;;19.44;63.56;100044.04;106069;1270;22591;-60
2022/06/26 00:28:27;;;;;;;17.30;7.20;;;;;;;19.38;63.70;100047.16;105990;1270;22570;-58
2022/06/26 00:30:58;;;;;;;17.30;6.00;;;;;;;19.32;63.55;100048.68;106046;1270;25255;-59
2022/06/26 00:33:30;;;;;;;18.00;7.50;;;;;;;19.28;63.65;100048.23;102014;1270;5386648;-57
2022/06/26 00:36:02;;;;;;;15.20;7.20;;;;;;;19.23;63.81;100048.39;105920;1270;22549;-57
2022/06/26 00:38:34;;;;;;;16.90;6.90;;;;;;;19.16;63.88;100051.67;105901;1270;25238;-58
2022/06/26 00:41:06;;;;;;;18.80;7.60;;;;;;;19.07;64.12;100055.17;106343;1270;22530;-57
2022/06/26 00:43:38;;;;;;;14.00;6.60;;;;;;;18.99;64.42;100064.31;106048;1270;25952;-59
2022/06/26 00:46:10;;;;;;;17.20;8.70;;;;;;;18.93;64.56;100061.04;106056;1270;23911;-59
2022/06/26 00:48:41;;;;;;;17.50;7.00;;;;;;;18.89;64.63;100065.23;106062;1270;22526;-59
2022/06/26 00:51:15;;;;;;;14.80;6.20;;;;;;;18.85;64.47;100060.88;105980;1270;24287;-60
2022/06/26 00:53:46;;;;;;;16.00;6.60;;;;;;;18.83;64.34;100061.52;106019;1270;22526;-58
2022/06/26 00:56:18;;;;;;;15.90;6.20;;;;;;;18.84;64.28;100060.89;106061;1270;24171;-58
2022/06/26 00:58:50;;;;;;;14.40;6.80;;;;;;;18.83;64.18;100059.58;105940;1270;22540;-59
2022/06/26 01:01:21;;;;;;;17.10;6.90;;;;;;;18.83;64.29;100052.63;105839;1270;22965;-57
2022/06/26 01:03:53;;;;;;;13.10;6.00;;;;;;;18.82;64.41;100054.45;105887;1270;22587;-58
2022/06/26 01:06:24;;;;;;;14.40;6.00;;;;;;;18.80;64.29;100058.09;105862;1270;22548;-59
2022/06/26 01:08:57;;;;;;;22.30;6.80;;;;;;;18.79;64.38;100052.45;106051;1270;25551;-59
2022/06/26 01:11:30;;;;;;;16.40;7.20;;;;;;;18.78;64.55;100053.80;106110;1270;25269;-61
2022/06/26 01:14:02;;;;;;;18.20;8.20;;;;;;;18.77;64.78;100053.34;106041;1269;22537;-59
2022/06/26 01:16:34;;;;;;;15.50;7.20;;;;;;;18.75;64.83;100054.88;106133;1270;22550;-58
2022/06/26 01:19:08;;;;;;;15.80;7.00;;;;;;;18.73;64.78;100056.34;106133;1270;24302;-57
2022/06/26 01:21:39;;;;;;;14.30;6.70;;;;;;;18.71;65.01;100052.23;106100;1270;22525;-58
2022/06/26 01:24:11;;;;;;;18.10;7.00;;;;;;;18.68;64.78;100050.52;106091;1270;22554;-58
2022/06/26 01:26:44;;;;;;;15.80;7.10;;;;;;;18.67;65.05;100049.88;105749;1270;22943;-56
2022/06/26 01:29:16;;;;;;;16.80;7.50;;;;;;;18.64;65.32;100051.46;106058;1270;22542;-58
2022/06/26 01:31:47;;;;;;;15.90;8.10;;;;;;;18.57;65.29;100055.69;106013;1270;22564;-58
2022/06/26 01:34:20;;;;;;;17.50;7.00;;;;;;;18.50;65.38;100052.78;105991;1270;25198;-58
2022/06/26 01:36:51;;;;;;;19.20;7.20;;;;;;;18.45;65.42;100049.83;105884;1270;24657;-58
2022/06/26 01:39:23;;;;;;;17.00;7.50;;;;;;;18.42;65.39;100051.90;105989;1270;22767;-58
2022/06/26 01:41:58;;;;;;;18.00;7.00;;;;;;;18.38;65.68;100052.64;105925;1270;22567;-56
2022/06/26 01:44:29;;;;;;;25.20;7.50;;;;;;;18.31;65.94;100051.19;106112;1270;22534;-57
2022/06/26 01:47:01;;;;;;;22.60;6.90;;;;;;;18.24;65.85;100054.48;106054;1270;22538;-57
2022/06/26 01:49:33;;;;;;;18.30;6.30;;;;;;;18.20;66.04;100063.80;105930;1270;22553;-58
2022/06/26 01:52:06;;;;;;;18.80;7.20;;;;;;;18.12;66.36;100069.77;105979;1270;22530;-58
2022/06/26 01:54:38;;;;;;;18.20;8.50;;;;;;;18.02;66.53;100067.09;106047;1270;24253;-56
2022/06/26 01:57:10;;;;;;;18.50;8.30;;;;;;;17.95;66.66;100074.07;105866;1270;22529;-58
2022/06/26 01:59:41;;;;;;;22.00;8.60;;;;;;;17.86;66.44;100065.91;105820;1270;25337;-59
2022/06/26 02:02:13;;;;;;;17.70;8.30;;;;;;;17.84;66.52;100067.70;105791;1270;22573;-57
2022/06/26 02:04:44;;;;;;;15.90;7.60;;;;;;;17.82;66.55;100066.54;105826;1270;22544;-58
2022/06/26 02:07:16;;;;;;;16.20;6.80;;;;;;;17.78;66.85;100062.33;105791;1270;24094;-55
2022/06/26 02:15:26;;;;;;;19.30;8.40;;;;;;;17.61;67.08;100075.32;105780;1270;22531;-56
2022/06/26 02:17:58;;;;;;;14.60;7.10;;;;;;;17.58;66.91;100079.73;105743;1270;26519;-55
2022/06/26 02:20:30;;;;;;;15.90;7.70;;;;;;;17.53;67.12;100075.52;105662;1270;25413;-57
2022/06/26 02:23:01;;;;;;;14.90;6.80;;;;;;;17.47;67.26;100079.11;105741;1269;25253;-59
2022/06/26 02:25:33;;;;;;;16.20;7.60;;;;;;;17.43;67.10;100076.29;105878;1270;22534;-57
2022/06/26 02:28:06;;;;;;;19.00;7.40;;;;;;;17.42;67.08;100076.48;105809;1270;25255;-55
2022/06/26 02:30:37;;;;;;;17.70;7.20;;;;;;;17.42;67.21;100077.42;105774;1270;22541;-59
2022/06/26 02:33:09;;;;;;;13.00;6.30;;;;;;;17.39;67.18;100079.88;105800;1270;25266;-58
2022/06/26 02:35:44;;;;;;;14.20;6.50;;;;;;;17.35;67.17;100083.55;105964;1270;24355;-53
2022/06/26 02:38:16;;;;;;;16.10;6.70;;;;;;;17.31;67.47;100088.68;105746;1270;22531;-58
2022/06/26 02:40:48;;;;;;;20.40;7.70;;;;;;;17.26;67.57;100089.19;105894;1270;24237;-58
2022/06/26 02:43:23;;;;;;;19.30;8.30;;;;;;;17.24;67.27;100090.23;105822;1270;22532;-56
2022/06/26 02:45:56;;;;;;;16.10;7.60;;;;;;;17.24;67.52;100087.92;105690;1270;22531;-57
2022/06/26 02:48:28;;;;;;;15.30;7.10;;;;;;;17.23;67.64;100093.00;105770;1270;22541;-57
2022/06/26 02:51:01;;;;;;;19.90;8.40;;;;;;;17.20;67.61;100096.34;105812;1270;22539;-57
2022/06/26 02:53:34;;;;;;;14.40;7.70;;;;;;;17.15;68.12;100099.67;105825;1270;22922;-54
2022/06/26 02:56:06;;;;;;;15.90;7.80;;;;;;;17.09;68.31;100102.23;105769;1270;22528;-55
2022/06/26 02:58:38;;;;;;;17.70;8.80;;;;;;;17.05;68.12;100108.48;105697;1270;22594;-55
2022/06/26 03:01:09;;;;;;;19.50;8.80;;;;;;;17.05;68.15;100111.19;105762;1270;22518;-55
2022/06/26 03:03:41;;;;;;;24.80;11.50;;;;;;;17.05;68.22;100112.84;105731;1270;24321;-56
2022/06/26 03:06:13;;;;;;;22.20;11.40;;;;;;;17.03;68.41;100116.66;105701;1270;22541;-57
2022/06/26 03:08:45;;;;;;;16.70;9.50;;;;;;;16.95;68.87;100116.15;105796;1270;22531;-57
2022/06/26 03:11:17;;;;;;;17.90;9.40;;;;;;;16.91;69.09;100117.27;105959;1270;22525;-57
2022/06/26 03:13:48;;;;;;;18.80;9.00;;;;;;;16.87;68.97;100115.56;106009;1270;22542;-56
2022/06/26 03:16:20;;;;;;;18.30;8.40;;;;;;;16.86;69.22;100115.88;105942;1270;22474;-55
2022/06/26 03:18:51;;;;;;;20.30;9.80;;;;;;;16.82;69.27;100115.04;105953;1270;24282;-57
2022/06/26 03:21:23;;;;;;;19.70;8.80;;;;;;;16.79;69.34;100117.33;106132;1270;25446;-54
2022/06/26 03:24:05;;;;;;;19.20;8.90;;;;;;;16.76;69.30;100116.38;106043;1270;25307;-58
2022/06/26 03:26:38;;;;;;;21.80;10.20;;;;;;;16.70;69.69;100115.85;105842;1270;22537;-58
2022/06/26 03:29:11;;;;;;;18.20;9.60;;;;;;;16.63;70.22;100111.66;105931;1270;24030;-54
2022/06/26 03:31:44;;;;;;;17.60;9.50;;;;;;;16.55;70.42;100112.59;106073;1270;23186;-57
2022/06/26 03:34:15;;;;;;;18.10;9.10;;;;;;;16.53;70.71;100113.92;105915;1270;22551;-57
2022/06/26 03:36:49;;;;;;;18.10;9.50;;;;;;;16.51;70.74;100118.30;106160;1270;24428;-55
2022/06/26 03:39:21;;;;;;;23.20;10.40;;;;;;;16.50;70.84;100122.67;106061;1270;22559;-57
2022/06/26 03:42:00;;;;;;;19.30;9.30;;;;;;;16.51;70.79;100128.40;106004;1270;24267;-56
2022/06/26 03:44:32;;;;;;;18.30;9.80;;;;;;;16.54;70.86;100132.83;106036;1270;22560;-57
2022/06/26 03:47:04;;;;;;;18.10;9.50;;;;;;;16.58;70.94;100140.66;106139;1270;24617;-57
2022/06/26 03:49:38;;;;;;;15.70;8.50;;;;;;;16.62;70.77;100137.34;105946;1270;25574;-57
2022/06/26 03:52:10;;;;;;;16.00;8.90;;;;;;;16.67;71.20;100132.59;106154;1270;22529;-58
2022/06/26 03:54:42;;;;;;;19.20;9.40;;;;;;;16.71;71.22;100132.86;106137;1270;25232;-59
2022/06/26 03:57:14;;;;;;;16.20;9.60;;;;;;;16.76;71.39;100131.85;106080;1270;22951;-55
2022/06/26 03:59:46;;;;;;;18.10;9.50;;;;;;;16.80;71.45;100131.36;106154;1270;22535;-59
2022/06/26 04:02:17;;;;;;;18.80;9.50;;;;;;;16.84;71.90;100131.58;106012;1270;22550;-56
2022/06/26 04:04:49;;;;;;;19.20;10.60;;;;;;;16.89;71.56;100129.48;106092;1270;25356;-54
2022/06/26 04:07:21;;;;;;;21.40;9.40;;;;;;;16.95;71.88;100129.65;106125;1270;25375;-55
2022/06/26 04:09:52;;;;;;;16.70;8.00;;;;;;;17.03;71.74;100139.27;106031;1271;25355;-58
2022/06/26 04:12:24;;;;;;;19.40;9.40;;;;;;;17.09;72.08;100134.54;106039;1270;22588;-56
2022/06/26 04:14:55;;;;;;;16.30;8.80;;;;;;;17.15;72.20;100138.08;106142;1271;22538;-55
2022/06/26 04:17:28;;;;;;;17.70;8.70;;;;;;;17.22;72.18;100143.20;106016;1270;22706;-57
2022/06/26 04:20:00;;;;;;;17.40;9.80;;;;;;;17.30;72.25;100150.14;106154;1270;22544;-57
2022/06/26 04:22:32;;;;;;;21.00;10.90;;;;;;;17.38;72.44;100148.99;106095;1271;22536;-57
2022/06/26 04:25:04;;;;;;;19.30;8.60;;;;;;;17.45;72.30;100151.21;105858;1270;23438;-56
2022/06/26 04:27:35;;;;;;;18.90;10.10;;;;;;;17.56;72.42;100156.38;105926;1270;25892;-56
2022/06/26 04:30:08;;;;;;;16.70;9.40;;;;;;;17.64;72.41;100157.57;105962;1271;22580;-58
2022/06/26 04:32:40;;;;;;;21.30;10.20;;;;;;;17.73;72.58;100158.55;106082;1270;22558;-58
2022/06/26 04:35:12;;;;;;;21.60;10.20;;;;;;;17.81;72.78;100160.91;105889;1271;24317;-56
2022/06/26 04:37:44;;;;;;;16.60;8.70;;;;;;;17.91;72.67;100156.09;105872;1270;22533;-56
2022/06/26 04:40:16;;;;;;;18.50;9.20;;;;;;;18.03;72.89;100153.00;105980;1270;25327;-56
2022/06/26 04:42:48;;;;;;;19.00;10.60;;;;;;;18.15;72.73;100157.16;105789;1270;24020;-59
2022/06/26 04:45:20;;;;;;;16.40;9.80;;;;;;;18.25;72.63;100158.96;105814;1270;24297;-56
2022/06/26 04:47:52;;;;;;;16.20;8.70;;;;;;;18.39;72.67;100159.91;105820;1271;24444;-55
2022/06/26 04:50:23;;;;;;;20.30;8.90;;;;;;;18.49;72.57;100160.56;105802;1271;26099;-58
2022/06/26 04:52:55;;;;;;;18.50;8.60;;;;;;;18.62;72.36;100163.98;105832;1270;24309;-55
2022/06/26 04:55:27;;;;;;;16.20;8.80;;;;;;;18.70;72.26;100167.56;105912;1271;22541;-57
2022/06/26 04:57:58;;;;;;;18.20;8.50;;;;;;;18.77;72.40;100170.44;105908;1270;22614;-57
2022/06/26 05:00:31;;;;;;;14.60;8.40;;;;;;;18.89;72.29;100171.79;105954;1270;22544;-56
2022/06/26 05:03:04;;;;;;;16.90;8.40;;;;;;;19.02;72.13;100174.14;105879;1270;22548;-55
2022/06/26 05:05:36;;;;;;;17.90;7.30;;;;;;;19.17;71.91;100172.67;105792;1271;22555;-57
2022/06/26 05:08:10;;;;;;;15.60;8.20;;;;;;;19.30;72.12;100173.52;105889;1270;25410;-58
2022/06/26 05:10:42;;;;;;;16.60;7.80;;;;;;;19.46;71.92;100169.09;105823;1271;22573;-60
2022/06/26 05:13:13;;;;;;;15.70;7.30;;;;;;;19.65;71.80;100170.90;105882;1271;26498;-57
2022/06/26 05:15:46;;;;;;;15.80;6.90;;;;;;;19.84;71.40;100173.77;106065;1270;22664;-56
2022/06/26 05:18:18;;;;;;;17.40;6.90;;;;;;;20.00;71.11;100176.53;105622;1271;22666;-58
2022/06/26 05:20:51;;;;;;;13.90;7.00;;;;;;;20.16;70.92;100180.65;106470;1271;23957;-57
2022/06/26 05:23:24;;;;;;;13.50;6.80;;;;;;;20.32;70.74;100183.94;106038;1271;22526;-57
2022/06/26 05:25:55;;;;;;;19.10;6.40;;;;;;;20.47;70.46;100192.57;105913;1270;26635;-56
2022/06/26 05:28:27;;;;;;;13.70;6.30;;;;;;;20.60;69.98;100195.02;106098;1271;25423;-59
2022/06/26 05:30:59;;;;;;;12.40;5.90;;;;;;;20.76;69.56;100194.95;105882;1271;25346;-58
2022/06/26 05:36:02;;;;;;;16.70;7.10;;;;;;;21.07;68.78;100194.19;102099;1310;545337;-58
2022/06/26 05:38:34;;;;;;;17.00;7.10;;;;;;;21.22;68.38;100197.08;105514;1282;22651;-59
2022/06/26 05:41:07;;;;;;;12.10;6.70;;;;;;;21.32;68.05;100195.52;105258;1283;25611;-59
2022/06/26 05:43:38;;;;;;;15.20;7.00;;;;;;;21.42;67.83;100198.53;105595;1277;22532;-57
2022/06/26 05:46:10;;;;;;;13.80;6.80;;;;;;;21.49;67.69;100201.02;105615;1274;22630;-59
2022/06/26 05:48:42;;;;;;;16.00;6.80;;;;;;;21.58;67.61;100199.54;101782;1273;5371447;-60
2022/06/26 05:51:14;;;;;;;13.40;6.40;;;;;;;21.71;67.23;100201.52;105986;1273;22554;-58
2022/06/26 05:53:46;;;;;;;15.50;7.00;;;;;;;21.81;66.76;100205.73;105992;1273;22654;-59
2022/06/26 05:56:17;;;;;;;14.30;7.10;;;;;;;21.88;66.29;100208.44;105920;1273;25181;-59
2022/06/26 05:58:49;;;;;;;13.40;6.90;;;;;;;21.94;66.49;100213.90;105979;1273;25380;-59
2022/06/26 06:01:21;;;;;;;12.80;6.20;;;;;;;22.04;66.18;100213.52;105724;1273;25321;-60
2022/06/26 06:03:53;;;;;;;14.60;7.00;;;;;;;22.17;66.07;100213.51;106015;1273;26479;-60
2022/06/26 06:06:25;;;;;;;17.20;7.90;;;;;;;22.26;65.63;100214.05;105984;1273;25528;-58
2022/06/26 06:08:56;;;;;;;14.10;6.50;;;;;;;22.38;65.59;100215.89;106218;1267;24228;-60
2022/06/26 06:11:28;;;;;;;14.30;7.20;;;;;;;22.52;65.04;100214.70;106290;1267;23989;-60
2022/06/26 06:14:00;;;;;;;18.30;7.20;;;;;;;22.63;64.75;100217.39;106264;1267;22575;-58
2022/06/26 06:16:32;;;;;;;14.70;6.60;;;;;;;22.73;64.53;100216.05;106502;1268;24339;-56
2022/06/26 06:19:04;;;;;;;15.40;7.50;;;;;;;22.87;64.10;100222.13;106108;1268;22608;-59
2022/06/26 06:21:35;;;;;;;12.80;6.70;;;;;;;23.01;63.92;100227.10;106237;1267;23905;-61
2022/06/26 06:24:08;;;;;;;14.40;6.50;;;;;;;23.16;63.70;100229.55;106156;1267;22548;-58
2022/06/26 06:26:40;;;;;;;14.80;7.70;;;;;;;23.31;63.41;100231.48;106182;1268;25373;-58
2022/06/26 06:29:12;;;;;;;15.00;7.60;;;;;;;23.41;62.55;100232.60;106224;1270;25313;-59
2022/06/26 06:31:46;;;;;;;15.90;7.40;;;;;;;23.48;62.28;100231.81;106700;1258;24405;-52
2022/06/26 06:34:17;;;;;;;18.70;6.40;;;;;;;23.54;62.19;100236.15;105909;1270;22653;-48
2022/06/26 06:36:50;;;;;;;11.80;6.40;;;;;;;23.65;61.92;100239.68;106209;1270;25049;-51
2022/06/26 06:39:22;;;;;;;17.20;6.90;;;;;;;23.76;61.68;100240.59;106193;1270;22583;-48
2022/06/26 06:41:55;;;;;;;12.30;6.70;;;;;;;23.84;61.46;100246.70;106352;1270;25238;-50
2022/06/26 06:44:27;;;;;;;14.50;6.70;;;;;;;23.94;61.30;100246.91;106124;1270;22477;-50
2022/06/26 06:46:59;;;;;;;14.40;7.70;;;;;;;24.05;60.82;100250.05;106059;1270;25354;-52
2022/06/26 06:49:31;;;;;;;14.20;6.60;;;;;;;24.02;60.02;100244.09;106478;1270;23883;-50
2022/06/26 06:52:04;;;;;;;15.10;7.10;;;;;;;24.03;60.33;100244.94;106124;1270;22568;-51
2022/06/26 06:54:36;;;;;;;11.80;6.20;;;;;;;24.13;60.26;100247.95;106171;1270;25287;-49
2022/06/26 06:57:08;;;;;;;11.70;5.70;;;;;;;24.22;59.87;100246.52;105989;1270;25242;-48
2022/06/26 06:59:42;;;;;;;14.30;7.50;;;;;;;24.28;59.58;100250.38;106266;1270;24471;-52
2022/06/26 07:02:15;;;;;;;14.30;7.10;;;;;;;24.36;59.78;100246.55;106132;1270;24422;-50
2022/06/26 07:04:46;;;;;;;11.80;5.70;;;;;;;24.49;59.37;100247.22;106224;1270;22681;-51
2022/06/26 07:07:19;;;;;;;16.70;6.30;;;;;;;24.59;59.23;100248.71;106042;1270;24397;-51
2022/06/26 07:09:52;;;;;;;15.20;7.30;;;;;;;24.68;58.96;100250.27;105868;1270;23005;-48
2022/06/26 07:12:24;;;;;;;15.40;7.40;;;;;;;24.76;58.60;100242.92;105874;1270;26664;-49
2022/06/26 07:14:56;;;;;;;11.80;6.20;;;;;;;24.83;58.25;100242.67;105956;1270;22557;-48
2022/06/26 07:17:29;;;;;;;15.30;7.40;;;;;;;24.92;58.09;100234.73;106106;1270;22553;-48
2022/06/26 07:20:01;;;;;;;18.40;8.40;;;;;;;24.99;58.07;100233.66;106101;1270;25507;-48
2022/06/26 07:22:35;;;;;;;13.10;7.20;;;;;;;25.11;57.49;100238.39;106105;1270;25962;-49
2022/06/26 07:25:10;;;;;;;14.00;6.70;;;;;;;25.14;57.48;100236.39;106042;1270;26279;-49
2022/06/26 07:27:44;;;;;;;17.30;6.90;;;;;;;25.17;57.27;100239.06;105989;1270;22626;-51
2022/06/26 07:30:16;;;;;;;16.00;5.90;;;;;;;25.26;57.35;100234.29;105921;1270;22537;-53
2022/06/26 07:32:48;;;;;;;12.70;6.50;;;;;;;25.40;56.98;100235.79;106420;1270;22713;-51
2022/06/26 07:35:20;;;;;;;14.40;6.30;;;;;;;25.46;56.20;100236.83;105847;1271;23403;-52
2022/06/26 07:37:52;;;;;;;13.30;6.20;;;;;;;25.53;56.38;100236.45;105822;1270;22532;-49
2022/06/26 07:40:24;;;;;;;13.00;5.90;;;;;;;25.66;55.97;100238.23;105864;1270;25301;-49
2022/06/26 07:42:55;;;;;;;13.00;5.60;;;;;;;25.71;56.06;100231.95;105988;1270;23507;-49
2022/06/26 07:45:27;;;;;;;12.30;5.50;;;;;;;25.81;55.89;100232.48;106126;1270;25309;-48
2022/06/26 07:47:59;;;;;;;12.40;6.00;;;;;;;25.88;55.34;100229.56;106134;1270;22639;-49
2022/06/26 07:50:30;;;;;;;13.30;5.40;;;;;;;25.97;55.33;100229.31;105985;1270;25596;-49
2022/06/26 07:53:03;;;;;;;14.90;6.60;;;;;;;26.07;54.95;100228.77;106010;1270;24259;-49
2022/06/26 07:55:35;;;;;;;11.10;5.30;;;;;;;26.14;54.47;100228.90;106421;1270;25434;-51
2022/06/26 07:58:07;;;;;;;13.10;5.70;;;;;;;26.18;54.08;100231.52;106140;1270;26549;-49
2022/06/26 08:00:39;;;;;;;14.10;6.20;;;;;;;26.26;53.96;100233.04;106152;1270;23908;-48
2022/06/26 08:03:13;;;;;;;12.30;6.10;;;;;;;26.28;53.73;100233.55;106173;1270;24228;-51
2022/06/26 08:08:02;;;;;;;13.50;5.10;;;;;;;26.33;53.56;100233.98;103292;1310;546020;-75
2022/06/26 08:10:34;;;;;;;11.10;4.80;;;;;;;26.43;53.19;100233.92;105987;1281;25021;-73
2022/06/26 08:13:06;;;;;;;10.20;4.30;;;;;;;26.58;52.87;100231.23;105963;1281;22628;-74
2022/06/26 08:15:37;;;;;;;10.50;4.80;;;;;;;26.68;52.24;100230.93;105667;1281;22567;-74
2022/06/26 08:18:08;;;;;;;10.40;4.50;;;;;;;26.75;52.34;100227.55;105883;1281;23043;-75
2022/06/26 08:20:40;;;;;;;10.30;4.50;;;;;;;26.82;51.83;100231.54;105662;1277;300653;-75
2022/06/26 08:23:11;;;;;;;9.20;4.00;;;;;;;26.92;51.90;100231.52;105930;1277;22547;-74
2022/06/26 08:25:43;;;;;;;8.60;3.90;;;;;;;27.07;52.02;100226.11;105907;1277;22551;-75
2022/06/26 08:28:15;;;;;;;12.00;4.00;;;;;;;27.23;51.57;100225.83;106426;1271;22525;-75
2022/06/26 08:30:46;;;;;;;15.50;4.30;;;;;;;27.37;51.22;100224.36;106482;1271;25525;-75
2022/06/26 08:33:17;;;;;;;9.00;3.30;;;;;;;27.48;50.25;100225.55;106389;1271;22609;-73
2022/06/26 08:35:48;;;;;;;9.40;3.30;;;;;;;27.59;49.54;100229.38;106403;1271;25251;-75
2022/06/26 08:38:20;;;;;;;7.50;3.70;;;;;;;27.72;49.20;100229.75;106460;1271;24229;-75
2022/06/26 08:40:54;;;;;;;8.30;3.60;;;;;;;27.90;48.84;100227.70;106415;1270;23255;-74
2022/06/26 08:43:27;;;;;;;10.20;2.90;;;;;;;28.03;48.45;100223.92;106494;1271;22619;-75
2022/06/26 08:46:04;;;;;;;8.50;3.00;;;;;;;28.14;48.21;100226.80;106474;1271;22541;-75
2022/06/26 08:48:42;;;;;;;7.70;3.10;;;;;;;28.30;47.82;100228.29;106385;1271;25452;-74
2022/06/26 08:51:14;;;;;;;9.50;3.00;;;;;;;28.42;47.26;100224.19;106451;1271;22558;-75
2022/06/26 08:53:46;;;;;;;13.40;3.80;;;;;;;28.53;46.74;100224.00;106478;1271;22711;-75
2022/06/26 08:56:17;;;;;;;10.00;2.80;;;;;;;28.61;46.72;100225.61;106377;1270;22696;-75
2022/06/26 08:58:48;;;;;;;9.40;3.20;;;;;;;28.72;46.62;100223.73;106340;1271;22552;-75
2022/06/26 09:01:20;;;;;;;9.90;4.10;;;;;;;28.83;46.22;100220.47;106472;1271;24243;-75
2022/06/26 09:03:51;;;;;;;7.90;3.30;;;;;;;28.90;46.03;100220.24;106417;1271;22544;-75
2022/06/26 09:06:24;;;;;;;8.30;2.70;;;;;;;28.92;45.39;100218.52;106404;1271;22544;-75
2022/06/26 09:08:55;;;;;;;7.60;3.20;;;;;;;28.94;45.42;100219.39;106447;1271;22599;-75
2022/06/26 09:11:26;;;;;;;8.10;2.50;;;;;;;28.97;44.76;100217.15;106457;1270;25286;-74
2022/06/26 09:14:00;;;;;;;9.10;2.60;;;;;;;28.97;44.26;100219.48;106423;1271;25615;-75
2022/06/26 09:16:35;;;;;;;7.10;2.50;;;;;;;28.98;43.82;100220.10;106611;1271;24329;-76
2022/06/26 09:19:12;;;;;;;9.00;2.40;;;;;;;28.99;43.80;100219.63;106568;1271;22566;-76
2022/06/26 09:21:44;;;;;;;12.50;2.70;;;;;;;28.98;43.59;100215.54;106506;1271;25231;-75
2022/06/26 09:24:20;;;;;;;9.10;2.40;;;;;;;29.03;43.94;100214.45;106411;1271;22603;-75
2022/06/26 09:27:06;;;;;;;8.90;2.60;;;;;;;29.16;43.63;100214.83;106390;1271;22658;-75
2022/06/26 09:29:40;;;;;;;7.80;2.50;;;;;;;29.26;42.87;100212.53;106558;1271;25710;-74
2022/06/26 09:32:14;;;;;;;11.30;2.80;;;;;;;29.32;42.99;100209.70;106293;1271;22691;-75
2022/06/26 09:34:49;;;;;;;7.40;1.90;;;;;;;29.40;42.41;100210.36;106554;1271;25451;-75
2022/06/26 09:37:22;;;;;;;6.30;2.40;;;;;;;29.48;41.88;100206.90;106435;1271;25932;-74
2022/06/26 09:40:04;;;;;;;7.90;2.40;;;;;;;29.58;41.27;100209.05;106436;1271;25349;-73
2022/06/26 09:42:36;;;;;;;4.90;2.00;;;;;;;29.68;41.13;100209.73;106404;1271;26800;-74
2022/06/26 09:45:11;;;;;;;8.60;2.30;;;;;;;29.79;40.91;100208.17;106384;1271;24628;-73
2022/06/26 09:47:45;;;;;;;6.60;2.10;;;;;;;29.91;41.03;100210.06;106537;1271;23928;-75
2022/06/26 09:50:18;;;;;;;9.90;2.50;;;;;;;30.03;40.64;100210.77;106398;1271;23376;-74
2022/06/26 09:52:52;;;;;;;5.90;2.10;;;;;;;30.13;40.39;100210.86;106427;1271;22547;-75
2022/06/26 09:55:23;;;;;;;6.40;2.40;;;;;;;30.24;40.69;100212.73;106491;1271;23072;-74
2022/06/26 09:57:55;;;;;;;6.10;2.00;;;;;;;30.32;40.28;100210.59;106413;1271;22551;-74
2022/06/26 10:00:29;;;;;;;5.50;2.10;;;;;;;30.39;39.77;100209.13;106477;1271;24939;-74
2022/06/26 10:08:43;;;;;;;7.70;2.10;;;;;;;30.63;39.23;100210.61;106418;1271;24218;-75
2022/06/26 10:11:15;;;;;;;7.90;2.00;;;;;;;30.69;38.94;100213.05;106557;1271;25238;-75
2022/06/26 10:13:47;;;;;;;6.80;1.70;;;;;;;30.69;37.70;100209.10;106481;1271;22639;-74
2022/06/26 10:16:36;;;;;;;6.90;1.80;;;;;;;30.65;38.01;100209.54;106539;1271;22560;-74
2022/06/26 10:19:21;;;;;;;5.40;2.00;;;;;;;30.61;37.38;100203.69;106509;1271;22544;-75
2022/06/26 10:21:56;;;;;;;5.50;2.00;;;;;;;30.64;37.84;100207.91;106315;1271;24257;-73
2022/06/26 10:24:29;;;;;;;6.50;2.00;;;;;;;30.67;37.85;100206.98;106450;1271;25261;-74
2022/06/26 10:27:13;;;;;;;10.80;3.00;;;;;;;30.64;37.43;100206.20;106427;1271;25306;-74
2022/06/26 10:29:46;;;;;;;9.20;3.10;;;;;;;30.63;37.71;100201.55;106481;1271;22658;-74
2022/06/26 10:32:25;;;;;;;9.40;3.00;;;;;;;30.64;37.46;100207.05;106421;1271;25445;-74
2022/06/26 10:35:03;;;;;;;8.70;3.10;;;;;;;30.60;37.60;100209.52;106277;1272;26579;-74
2022/06/26 10:37:45;;;;;;;10.60;4.60;;;;;;;30.61;37.92;100207.73;106446;1271;22620;-75
2022/06/26 10:43:16;;;;;;;9.50;3.00;;;;;;;30.68;37.40;100205.47;106492;1271;24314;-73
2022/06/26 10:45:47;;;;;;;34.50;23.20;;;;;;;30.66;37.37;100207.63;106501;1271;23220;-75
2022/06/26 10:48:27;;;;;;;53.90;39.90;;;;;;;30.70;37.72;100207.76;106617;1271;22599;-75
2022/06/26 10:51:03;;;;;;;19.20;9.70;;;;;;;30.79;37.69;100205.14;106472;1271;25463;-75
2022/06/26 10:53:40;;;;;;;28.90;18.30;;;;;;;30.84;37.37;100201.16;106424;1271;22552;-75
2022/06/26 10:56:12;;;;;;;13.20;7.20;;;;;;;30.87;37.39;100206.27;106352;1271;22544;-75
2022/06/26 10:58:48;;;;;;;21.90;15.20;;;;;;;30.85;37.23;100200.79;106473;1271;22683;-74
2022/06/26 11:01:20;;;;;;;20.80;13.60;;;;;;;30.86;37.98;100199.85;106476;1271;22704;-74
2022/06/26 11:03:51;;;;;;;15.70;7.50;;;;;;;30.90;37.75;100199.59;106575;1270;24242;-75
2022/06/26 11:06:28;;;;;;;14.60;7.60;;;;;;;30.92;37.39;100197.84;106417;1271;24500;-75
2022/06/26 11:09:01;;;;;;;18.00;8.30;;;;;;;30.91;37.68;100201.83;106474;1271;22744;-75
2022/06/26 11:11:34;;;;;;;14.50;8.60;;;;;;;30.92;37.43;100198.41;106383;1271;25363;-75
2022/06/26 11:14:09;;;;;;;18.50;8.10;;;;;;;30.97;37.73;100197.58;106395;1271;25247;-75
2022/06/26 11:16:42;;;;;;;11.30;6.10;;;;;;;31.05;37.63;100201.09;106433;1271;25307;-75
2022/06/26 11:19:25;;;;;;;17.00;8.20;;;;;;;31.13;37.61;100195.85;106479;1271;22578;-74
2022/06/26 11:22:08;;;;;;;9.30;3.70;;;;;;;31.17;37.46;100199.49;106551;1271;25434;-75
2022/06/26 11:24:52;;;;;;;17.40;6.30;;;;;;;31.13;37.25;100197.75;106525;1271;23111;-75
2022/06/26 11:27:25;;;;;;;10.80;5.40;;;;;;;31.08;37.37;100193.63;106427;1271;22532;-75
2022/06/26 11:30:00;;;;;;;12.70;6.10;;;;;;;31.05;37.48;100187.83;106417;1271;22593;-75
2022/06/26 11:32:32;;;;;;;14.80;7.50;;;;;;;31.04;37.41;100185.20;106433;1271;22594;-75
2022/06/26 11:35:05;;;;;;;18.90;5.80;;;;;;;31.00;37.49;100186.10;106338;1271;22688;-75
2022/06/26 11:37:38;;;;;;;16.10;9.40;;;;;;;30.97;37.22;100179.86;106405;1271;25305;-75
2022/06/26 11:40:16;;;;;;;9.80;4.30;;;;;;;30.98;37.57;100177.04;106425;1269;22525;-76
2022/06/26 11:42:47;;;;;;;13.60;4.80;;;;;;;31.06;37.52;100177.50;106475;1271;25200;-75
2022/06/26 11:45:25;;;;;;;9.50;3.60;;;;;;;31.12;37.43;100180.63;106392;1271;22550;-75
2022/06/26 11:47:57;;;;;;;7.20;2.80;;;;;;;31.16;37.15;100180.71;106542;1271;22580;-76
2022/06/26 11:50:36;;;;;;;5.30;2.00;;;;;;;31.19;36.99;100176.87;106402;1271;25295;-75
2022/06/26 11:53:06;;;;;;;;;;;;;;;31.20;36.48;100169.71;106406;1271;24225;-75